Time;durP1;ratioP1;P1;durP2;ratioP2;P2;SDS_P1;SDS_P2;PMS_P1;PMS_P2;Temp;Humidity;BMP_temperature;BMP_pressure;BME280_temperature;BME280_humidity;BME280_pressure;Samples;Min_cycle;Max_cycle;Signal;HPM_P1;HPM_P2
2022/11/21 00:00:21;;;;;;;;;2.33;2.33;;;;;;;;5093332;27;45701;-81
2022/11/21 00:03:00;;;;;;;;;1.67;1.33;;;;;;;;5092733;27;45475;-84
2022/11/21 00:05:26;;;;;;;;;5.00;2.33;;;;;;;;5081753;27;45674;-83
2022/11/21 00:07:54;;;;;;;;;6.67;2.67;;;;;;;;5092920;27;45678;-83
2022/11/21 00:10:25;;;;;;;;;3.00;3.00;;;;;;;;5083340;27;47489;-83
2022/11/21 00:12:53;;;;;;;;;4.00;2.00;;;;;;;;5108757;27;45590;-83
2022/11/21 00:15:21;;;;;;;;;3.00;3.00;;;;;;;;5092903;27;45425;-82
2022/11/21 00:17:55;;;;;;;;;5.67;3.67;;;;;;;;5088998;27;45385;-82
2022/11/21 00:20:34;;;;;;;;;;;;;;;;;;;;;
2022/11/21 00:23:00;;;;;;;;;4.00;3.33;;;;;;;;5071045;27;71870;-81
2022/11/21 00:25:31;;;;;;;;;4.00;3.00;;;;;;;;5088505;27;45566;-81
2022/11/21 00:28:05;;;;;;;;;4.00;3.00;;;;;;;;5094884;27;45587;-82
2022/11/21 00:30:30;;;;;;;;;5.33;3.67;;;;;;;;5101500;27;45415;-83
2022/11/21 00:33:04;;;;;;;;;6.67;3.33;;;;;;;;5105085;27;45718;-81
2022/11/21 00:35:38;;;;;;;;;5.33;3.33;;;;;;;;5094383;27;45517;-81
2022/11/21 00:38:10;;;;;;;;;3.67;3.67;;;;;;;;5099325;27;45529;-81
2022/11/21 00:40:36;;;;;;;;;4.67;3.00;;;;;;;;5093344;27;46551;-82
2022/11/21 00:43:07;;;;;;;;;4.33;3.33;;;;;;;;5092462;27;45516;-82
2022/11/21 00:45:35;;;;;;;;;4.67;4.00;;;;;;;;5091776;27;45438;-82
2022/11/21 00:48:06;;;;;;;;;8.33;4.00;;;;;;;;5093556;27;45534;-83
2022/11/21 00:50:36;;;;;;;;;3.00;3.00;;;;;;;;5094229;27;46012;-82
2022/11/21 00:53:05;;;;;;;;;4.33;3.00;;;;;;;;5112616;27;45632;-82
2022/11/21 00:55:46;;;;;;;;;6.00;4.00;;;;;;;;5096599;27;45547;-82
2022/11/21 00:58:14;;;;;;;;;3.00;2.00;;;;;;;;5092861;27;45497;-80
2022/11/21 01:01:05;;;;;;;;;2.33;2.33;;;;;;;;5089261;27;46123;-83
2022/11/21 01:03:36;;;;;;;;;4.33;3.33;;;;;;;;5085785;27;45926;-82
2022/11/21 01:06:12;;;;;;;;;4.00;3.00;;;;;;;;5086141;27;46395;-81
2022/11/21 01:08:48;;;;;;;;;7.00;2.67;;;;;;;;5079724;27;45828;-81
2022/11/21 01:11:21;;;;;;;;;6.00;2.00;;;;;;;;5097983;27;45391;-80
2022/11/21 01:14:21;;;;;;;;;3.00;2.00;;;;;;;;5089674;27;45518;-80
2022/11/21 01:16:50;;;;;;;;;4.67;4.33;;;;;;;;5075186;27;45470;-82
2022/11/21 01:19:38;;;;;;;;;2.00;2.00;;;;;;;;5085927;27;45401;-80
2022/11/21 01:22:09;;;;;;;;;5.00;2.33;;;;;;;;5093688;27;46002;-82
2022/11/21 01:24:34;;;;;;;;;6.00;2.33;;;;;;;;5085101;27;45472;-84
2022/11/21 01:27:00;;;;;;;;;5.00;2.67;;;;;;;;5090078;27;45460;-81
2022/11/21 01:29:33;;;;;;;;;6.00;3.00;;;;;;;;5089095;27;46716;-82
2022/11/21 01:31:59;;;;;;;;;3.33;1.00;;;;;;;;5085405;27;46087;-82
2022/11/21 01:34:27;;;;;;;;;4.00;3.00;;;;;;;;5090989;27;45807;-80
2022/11/21 01:36:54;;;;;;;;;4.67;3.33;;;;;;;;5087048;27;45761;-82
2022/11/21 01:39:22;;;;;;;;;10.00;4.67;;;;;;;;5081757;27;46150;-81
2022/11/21 01:41:52;;;;;;;;;5.33;2.67;;;;;;;;5092317;27;45375;-83
2022/11/21 01:44:23;;;;;;;;;7.00;4.00;;;;;;;;5093232;27;45344;-80
2022/11/21 01:46:55;;;;;;;;;5.00;2.00;;;;;;;;5089985;27;45484;-81
2022/11/21 01:49:31;;;;;;;;;4.67;3.00;;;;;;;;5082930;27;45311;-82
2022/11/21 01:52:10;;;;;;;;;2.00;2.00;;;;;;;;5092522;27;45587;-82
2022/11/21 01:54:53;;;;;;;;;8.00;3.67;;;;;;;;5085618;27;45616;-81
2022/11/21 01:57:27;;;;;;;;;6.00;2.00;;;;;;;;5082945;27;45928;-81
2022/11/21 01:59:59;;;;;;;;;5.67;2.00;;;;;;;;5093671;27;45764;-81
2022/11/21 02:02:30;;;;;;;;;4.00;3.00;;;;;;;;5100430;27;45158;-81
2022/11/21 02:04:56;;;;;;;;;5.67;2.33;;;;;;;;5088294;27;45354;-80
2022/11/21 02:07:35;;;;;;;;;5.00;3.00;;;;;;;;5097229;27;45487;-81
2022/11/21 02:10:03;;;;;;;;;6.33;4.00;;;;;;;;5088347;27;45472;-83
2022/11/21 02:12:54;;;;;;;;;5.00;3.00;;;;;;;;5093206;27;45720;-79
2022/11/21 02:15:24;;;;;;;;;5.00;3.67;;;;;;;;5082845;27;45381;-82
2022/11/21 02:17:51;;;;;;;;;2.00;2.00;;;;;;;;5088694;27;45433;-80
2022/11/21 02:20:43;;;;;;;;;4.33;2.00;;;;;;;;5093941;27;45645;-81
2022/11/21 02:23:23;;;;;;;;;4.33;2.67;;;;;;;;5088481;27;46754;-82
2022/11/21 02:26:12;;;;;;;;;8.00;5.00;;;;;;;;5090540;27;45537;-80
2022/11/21 02:29:09;;;;;;;;;4.33;2.67;;;;;;;;5070890;27;45981;-81
2022/11/21 02:31:58;;;;;;;;;4.00;2.67;;;;;;;;5046528;28;45430;-81
2022/11/21 02:34:29;;;;;;;;;4.33;3.00;;;;;;;;5003497;28;45912;-81
2022/11/21 02:37:26;;;;;;;;;;;;;;;;;;;;;
2022/11/21 02:40:27;;;;;;;;;7.00;4.00;;;;;;;;5049646;28;66700;-82
2022/11/21 02:43:00;;;;;;;;;2.33;2.00;;;;;;;;5054540;28;45839;-81
2022/11/21 02:45:45;;;;;;;;;3.67;1.67;;;;;;;;5052880;28;45435;-81
2022/11/21 02:48:42;;;;;;;;;2.33;1.00;;;;;;;;5068375;28;45645;-82
2022/11/21 02:51:17;;;;;;;;;3.00;3.00;;;;;;;;5061545;28;45646;-80
2022/11/21 02:53:42;;;;;;;;;3.00;0.33;;;;;;;;5067799;28;45447;-81
2022/11/21 02:56:09;;;;;;;;;3.33;3.33;;;;;;;;5047742;28;47651;-81
2022/11/21 02:58:37;;;;;;;;;6.00;4.00;;;;;;;;5049662;27;45764;-80
2022/11/21 03:01:16;;;;;;;;;3.33;2.33;;;;;;;;5068318;27;45460;-81
2022/11/21 03:03:44;;;;;;;;;3.00;2.33;;;;;;;;5071573;28;45563;-81
2022/11/21 03:06:10;;;;;;;;;5.00;3.67;;;;;;;;5041430;28;47087;-81
2022/11/21 03:08:45;;;;;;;;;3.67;2.00;;;;;;;;5057343;28;45913;-80
2022/11/21 03:11:13;;;;;;;;;5.00;3.67;;;;;;;;5051386;28;45809;-80
2022/11/21 03:14:01;;;;;;;;;3.67;2.67;;;;;;;;5072090;28;46505;-80
2022/11/21 03:16:33;;;;;;;;;7.00;2.00;;;;;;;;5073436;28;45456;-79
2022/11/21 03:19:17;;;;;;;;;10.00;4.00;;;;;;;;5053273;28;46682;-81
2022/11/21 03:22:09;;;;;;;;;3.67;2.33;;;;;;;;5048331;28;45583;-81
2022/11/21 03:24:54;;;;;;;;;5.67;3.67;;;;;;;;5069590;28;45484;-80
2022/11/21 03:27:41;;;;;;;;;5.00;5.00;;;;;;;;5054931;28;45859;-81
2022/11/21 03:30:10;;;;;;;;;3.67;3.00;;;;;;;;5090547;27;45803;-80
2022/11/21 03:33:08;;;;;;;;;10.00;4.33;;;;;;;;5085945;27;45755;-80
2022/11/21 03:35:34;;;;;;;;;8.00;2.00;;;;;;;;5086780;27;45612;-81
2022/11/21 03:38:03;;;;;;;;;3.67;3.00;;;;;;;;5090697;27;45969;-81
2022/11/21 03:40:28;;;;;;;;;5.00;3.67;;;;;;;;5086358;27;45730;-81
2022/11/21 03:43:23;;;;;;;;;3.67;3.67;;;;;;;;5082799;27;45451;-81
2022/11/21 03:45:48;;;;;;;;;6.67;4.00;;;;;;;;5076723;27;45776;-80
2022/11/21 03:48:16;;;;;;;;;7.33;5.67;;;;;;;;5076011;27;45858;-83
2022/11/21 03:50:51;;;;;;;;;5.33;4.00;;;;;;;;5086186;27;45763;-83
2022/11/21 03:53:17;;;;;;;;;7.00;4.00;;;;;;;;5078623;27;45644;-80
2022/11/21 03:55:43;;;;;;;;;7.00;4.67;;;;;;;;5093194;27;45383;-81
2022/11/21 03:58:11;;;;;;;;;7.00;3.00;;;;;;;;5091513;27;45503;-81
2022/11/21 04:00:39;;;;;;;;;5.00;5.00;;;;;;;;5084068;27;45564;-79
2022/11/21 04:03:06;;;;;;;;;6.67;3.00;;;;;;;;5098190;27;45848;-81
2022/11/21 04:05:34;;;;;;;;;4.67;4.00;;;;;;;;5088026;27;47070;-82
2022/11/21 04:07:59;;;;;;;;;7.67;4.00;;;;;;;;5095139;27;45818;-79
2022/11/21 04:10:33;;;;;;;;;6.00;4.67;;;;;;;;5097875;27;45681;-78
2022/11/21 04:12:59;;;;;;;;;8.00;3.67;;;;;;;;5094397;27;45502;-79
2022/11/21 04:15:26;;;;;;;;;5.67;3.00;;;;;;;;5084831;27;45523;-78
2022/11/21 04:17:51;;;;;;;;;5.33;2.33;;;;;;;;5097692;27;45555;-77
2022/11/21 04:20:20;;;;;;;;;6.67;3.00;;;;;;;;5097255;27;45801;-79
2022/11/21 04:22:50;;;;;;;;;4.00;2.33;;;;;;;;5088605;27;45413;-79
2022/11/21 04:25:16;;;;;;;;;5.00;4.00;;;;;;;;5089960;27;45663;-78
2022/11/21 04:27:44;;;;;;;;;6.67;3.00;;;;;;;;5093761;27;45478;-79
2022/11/21 04:30:13;;;;;;;;;4.33;3.00;;;;;;;;5101267;27;45410;-79
2022/11/21 04:32:40;;;;;;;;;7.00;4.67;;;;;;;;5087373;27;45575;-79
2022/11/21 04:35:06;;;;;;;;;6.33;3.00;;;;;;;;5088127;27;45644;-80
2022/11/21 04:37:35;;;;;;;;;6.00;4.00;;;;;;;;5090499;27;46868;-80
2022/11/21 04:40:01;;;;;;;;;8.33;3.33;;;;;;;;5087270;27;45893;-80
2022/11/21 04:42:27;;;;;;;;;7.67;4.67;;;;;;;;5090529;27;45550;-81
2022/11/21 04:44:52;;;;;;;;;4.33;3.33;;;;;;;;5093029;27;45476;-82
2022/11/21 04:47:18;;;;;;;;;10.00;4.00;;;;;;;;5087876;27;46181;-80
2022/11/21 04:49:45;;;;;;;;;5.33;4.00;;;;;;;;5092504;27;45421;-80
2022/11/21 04:52:11;;;;;;;;;6.00;4.67;;;;;;;;5096758;27;45323;-81
2022/11/21 04:54:37;;;;;;;;;6.00;5.00;;;;;;;;5092758;27;45396;-82
2022/11/21 04:57:26;;;;;;;;;9.00;7.00;;;;;;;;5079239;27;47525;-82
2022/11/21 04:59:51;;;;;;;;;13.33;6.33;;;;;;;;5091574;27;45864;-82
2022/11/21 05:02:17;;;;;;;;;8.67;5.00;;;;;;;;5094509;27;45408;-82
2022/11/21 05:04:42;;;;;;;;;11.00;5.00;;;;;;;;5077893;27;45375;-82
2022/11/21 05:07:10;;;;;;;;;6.00;3.00;;;;;;;;5093266;27;45571;-82
2022/11/21 05:09:56;;;;;;;;;9.33;4.00;;;;;;;;5097170;27;45415;-84
2022/11/21 05:15:09;;;;;;;;;4.67;4.00;;;;;;;;5104633;27;45693;-90
2022/11/21 05:18:21;;;;;;;;;7.00;7.00;;;;;;;;5104031;27;45589;-89
2022/11/21 05:20:54;;;;;;;;;4.00;4.00;;;;;;;;5109551;27;45257;-89
2022/11/21 05:23:55;;;;;;;;;7.00;4.00;;;;;;;;5115183;27;45357;-89
2022/11/21 05:26:38;;;;;;;;;5.00;3.33;;;;;;;;5111655;27;45588;-89
2022/11/21 05:32:17;;;;;;;;;9.00;7.33;;;;;;;;5101707;27;45596;-88
2022/11/21 05:35:08;;;;;;;;;17.00;14.67;;;;;;;;5104602;27;44804;-88
2022/11/21 05:37:37;;;;;;;;;10.00;8.67;;;;;;;;5118159;27;45442;-91
2022/11/21 05:40:11;;;;;;;;;10.67;7.33;;;;;;;;5105653;27;45690;-90
2022/11/21 05:45:27;;;;;;;;;8.00;7.00;;;;;;;;5106866;27;45510;-89
2022/11/21 05:47:57;;;;;;;;;7.33;6.00;;;;;;;;5095848;27;45813;-86
2022/11/21 05:50:29;;;;;;;;;11.00;8.67;;;;;;;;5107242;27;46383;-86
2022/11/21 05:53:03;;;;;;;;;6.67;5.00;;;;;;;;5099531;27;45481;-88
2022/11/21 05:55:34;;;;;;;;;11.00;7.00;;;;;;;;5103330;27;45383;-86
2022/11/21 05:58:02;;;;;;;;;13.00;6.67;;;;;;;;5090633;27;45722;-86
2022/11/21 06:00:31;;;;;;;;;8.33;5.67;;;;;;;;5096583;27;45362;-87
2022/11/21 06:05:54;;;;;;;;;;;;;;;;;;;;;
2022/11/21 06:11:29;;;;;;;;;9.33;6.00;;;;;;;;5089468;27;45630;-85
2022/11/21 06:13:55;;;;;;;;;12.00;9.67;;;;;;;;5105529;27;45590;-84
2022/11/21 06:16:21;;;;;;;;;7.00;7.00;;;;;;;;5096639;27;45313;-88
2022/11/21 06:18:48;;;;;;;;;7.67;6.33;;;;;;;;5104112;27;45686;-86
2022/11/21 06:21:15;;;;;;;;;8.33;4.33;;;;;;;;5104367;27;46373;-87
2022/11/21 06:23:40;;;;;;;;;12.67;8.33;;;;;;;;5103790;27;45478;-86
2022/11/21 06:26:06;;;;;;;;;10.33;8.33;;;;;;;;5095003;27;44880;-85
2022/11/21 06:28:33;;;;;;;;;12.33;7.00;;;;;;;;5105302;27;45562;-86
2022/11/21 06:31:05;;;;;;;;;10.00;7.00;;;;;;;;5102470;27;46237;-86
2022/11/21 06:33:33;;;;;;;;;8.00;5.00;;;;;;;;5102208;27;45866;-86
2022/11/21 06:36:05;;;;;;;;;7.67;7.67;;;;;;;;5085004;27;44813;-86
2022/11/21 06:38:35;;;;;;;;;8.33;6.00;;;;;;;;5108299;27;45517;-88
2022/11/21 06:41:10;;;;;;;;;6.33;4.67;;;;;;;;5107208;27;45601;-88
2022/11/21 06:43:36;;;;;;;;;7.67;6.67;;;;;;;;5099739;27;45403;-90
2022/11/21 06:46:05;;;;;;;;;13.00;11.33;;;;;;;;5098058;27;45803;-88
2022/11/21 06:48:31;;;;;;;;;10.67;7.00;;;;;;;;5101046;27;45531;-82
2022/11/21 06:50:57;;;;;;;;;13.67;6.33;;;;;;;;5097118;27;46979;-84
2022/11/21 06:53:29;;;;;;;;;6.67;5.00;;;;;;;;5105580;27;45728;-81
2022/11/21 06:56:00;;;;;;;;;11.00;6.67;;;;;;;;5099969;27;45657;-81
2022/11/21 06:58:27;;;;;;;;;10.33;7.33;;;;;;;;5106501;27;45507;-81
2022/11/21 07:00:52;;;;;;;;;7.67;6.00;;;;;;;;5107429;27;46946;-81
2022/11/21 07:03:29;;;;;;;;;9.00;5.00;;;;;;;;5106338;27;45247;-83
2022/11/21 07:06:00;;;;;;;;;5.67;4.00;;;;;;;;5092020;27;44773;-82
2022/11/21 07:08:27;;;;;;;;;7.33;7.00;;;;;;;;5097204;27;45417;-81
2022/11/21 07:10:53;;;;;;;;;9.00;8.00;;;;;;;;5102934;27;45237;-83
2022/11/21 07:13:21;;;;;;;;;10.33;8.00;;;;;;;;5107557;27;45787;-83
2022/11/21 07:15:47;;;;;;;;;10.33;9.00;;;;;;;;5100042;27;45730;-81
2022/11/21 07:18:32;;;;;;;;;10.00;6.67;;;;;;;;5111001;27;47053;-82
2022/11/21 07:24:35;;;;;;;;;7.00;7.00;;;;;;;;5047406;28;44830;-83
2022/11/21 07:27:21;;;;;;;;;7.67;6.33;;;;;;;;5046044;28;45616;-83
2022/11/21 07:29:51;;;;;;;;;12.00;7.67;;;;;;;;5038349;28;45825;-82
2022/11/21 07:35:49;;;;;;;;;14.67;9.00;;;;;;;;4976978;28;45496;-82
2022/11/21 07:38:41;;;;;;;;;18.00;12.33;;;;;;;;4974303;28;45414;-83
2022/11/21 07:41:34;;;;;;;;;12.67;9.67;;;;;;;;4963749;28;45694;-83
2022/11/21 07:44:38;;;;;;;;;11.00;10.00;;;;;;;;4970977;28;45584;-84
2022/11/21 07:47:29;;;;;;;;;15.00;10.00;;;;;;;;5028427;28;45904;-80
2022/11/21 07:49:57;;;;;;;;;11.00;9.00;;;;;;;;5049300;28;45841;-81
2022/11/21 07:59:25;;;;;;;;;;;;;;;;;;;;;
2022/11/21 08:09:22;;;;;;;;;;;;;;;;;;;;;
2022/11/21 08:18:50;;;;;;;;;;;;;;;;;;;;;
2022/11/21 08:24:31;;;;;;;;;;;;;;;;;;;;;
2022/11/21 08:27:29;;;;;;;;;16.00;12.00;;;;;;;;4902113;28;67669;-81
2022/11/21 08:30:54;;;;;;;;;;;;;;;;;;;;;
2022/11/21 08:36:52;;;;;;;;;21.33;18.00;;;;;;;;5071558;27;45470;-83
2022/11/21 08:43:11;;;;;;;;;;;;;;;;;;;;;
2022/11/21 08:52:07;;;;;;;;;13.33;11.33;;;;;;;;5014405;28;45483;-82
2022/11/21 08:58:32;;;;;;;;;;;;;;;;;;;;;
2022/11/21 09:01:16;;;;;;;;;17.67;14.33;;;;;;;;4986314;28;45638;-82
2022/11/21 09:04:08;;;;;;;;;18.00;17.00;;;;;;;;4957967;28;45809;-81
2022/11/21 09:06:39;;;;;;;;;17.33;17.00;;;;;;;;4964049;28;45866;-83
2022/11/21 09:09:21;;;;;;;;;15.00;12.33;;;;;;;;5003697;28;45481;-81
2022/11/21 09:11:52;;;;;;;;;24.00;17.67;;;;;;;;5030172;28;46264;-81
2022/11/21 09:20:06;;;;;;;;;17.00;13.33;;;;;;;;5090219;27;45751;-81
2022/11/21 09:22:37;;;;;;;;;12.33;12.33;;;;;;;;5082906;27;45681;-81
2022/11/21 09:25:09;;;;;;;;;19.00;13.00;;;;;;;;5089871;27;45532;-80
2022/11/21 09:27:42;;;;;;;;;20.33;14.33;;;;;;;;5080946;27;45776;-82
2022/11/21 09:30:21;;;;;;;;;17.67;13.00;;;;;;;;5084378;27;46912;-83
2022/11/21 09:32:56;;;;;;;;;14.33;13.33;;;;;;;;5095159;27;45916;-82
2022/11/21 09:35:39;;;;;;;;;14.33;11.33;;;;;;;;5096295;27;45455;-81
2022/11/21 09:38:16;;;;;;;;;21.33;11.67;;;;;;;;5079296;27;45527;-81
2022/11/21 09:40:51;;;;;;;;;18.00;17.00;;;;;;;;5097732;27;45306;-83
2022/11/21 09:43:34;;;;;;;;;15.00;12.00;;;;;;;;5079744;27;45702;-80
2022/11/21 09:46:11;;;;;;;;;14.67;10.67;;;;;;;;5092204;27;45608;-80
2022/11/21 09:48:52;;;;;;;;;13.33;12.00;;;;;;;;5086413;27;45520;-81
2022/11/21 09:51:22;;;;;;;;;15.33;12.00;;;;;;;;5079575;27;45732;-80
2022/11/21 09:53:55;;;;;;;;;14.00;11.00;;;;;;;;5099121;27;45494;-85
2022/11/21 09:56:24;;;;;;;;;13.33;10.00;;;;;;;;5095714;27;45746;-81
2022/11/21 09:58:56;;;;;;;;;14.67;8.67;;;;;;;;5095551;27;45874;-82
2022/11/21 10:01:28;;;;;;;;;9.00;9.00;;;;;;;;5092511;27;45713;-82
2022/11/21 10:04:02;;;;;;;;;13.33;11.00;;;;;;;;5096000;27;45936;-79
2022/11/21 10:06:39;;;;;;;;;10.67;8.33;;;;;;;;5101797;27;45501;-85
2022/11/21 10:09:23;;;;;;;;;13.67;9.00;;;;;;;;5113676;27;44788;-85
2022/11/21 10:12:36;;;;;;;;;11.67;9.00;;;;;;;;5100925;27;46227;-85
2022/11/21 10:15:05;;;;;;;;;10.00;9.00;;;;;;;;5102587;27;45759;-85
2022/11/21 10:21:29;;;;;;;;;;;;;;;;;;;;;
2022/11/21 10:24:05;;;;;;;;;13.00;11.33;;;;;;;;5050361;28;75418;-82
2022/11/21 10:52:54;;;;;;;;;;;;;;;;;;;;;
2022/11/21 10:56:00;;;;;;;;;;;;;;;;;;;;;
2022/11/21 11:02:51;;;;;;;;;;;;;;;;;;;;;
2022/11/21 11:17:46;;;;;;;;;10.67;4.67;;;;;;;;5041707;28;45424;-88
2022/11/21 11:24:19;;;;;;;;;7.00;7.00;;;;;;;;5025412;28;44803;-90
2022/11/21 11:30:03;;;;;;;;;6.00;5.00;;;;;;;;5022438;28;45444;-87
2022/11/21 11:32:39;;;;;;;;;9.33;6.00;;;;;;;;5002430;28;45939;-88
2022/11/21 11:35:16;;;;;;;;;9.00;6.00;;;;;;;;4999897;28;44996;-84
2022/11/21 11:38:23;;;;;;;;;;;;;;;;;;;;;
2022/11/21 11:40:54;;;;;;;;;10.33;5.33;;;;;;;;5000651;28;45642;-85
2022/11/21 11:48:48;;;;;;;;;8.00;7.00;;;;;;;;5085449;27;45494;-82
2022/11/21 11:51:28;;;;;;;;;6.67;6.33;;;;;;;;5080922;27;46107;-82
2022/11/21 11:54:00;;;;;;;;;6.33;6.33;;;;;;;;5079555;27;45588;-84
2022/11/21 12:40:04;;;;;;;;;5.67;5.67;;;;;;;;5082090;27;45939;-87
2022/11/21 12:43:10;;;;;;;;;;;;;;;;;;;;;
2022/11/21 12:46:02;;;;;;;;;8.00;6.67;;;;;;;;5026142;28;45553;-87
2022/11/21 13:21:48;;;;;;;;;7.33;6.00;;;;;;;;5045151;22;45529;-73
2022/11/21 13:24:32;;;;;;;;;8.00;7.00;;;;;;;;5064070;27;47785;-71
2022/11/21 13:26:58;;;;;;;;;9.67;5.00;;;;;;;;5090249;27;45373;-72
2022/11/21 13:32:18;;;;;;;;;6.00;4.00;;;;;;;;5154307;22;45405;-72
2022/11/21 13:34:43;;;;;;;;;9.67;5.00;;;;;;;;5114803;27;46955;-70
2022/11/21 13:37:08;;;;;;;;;6.33;4.00;;;;;;;;5122564;27;45478;-71
2022/11/21 13:39:34;;;;;;;;;5.00;3.67;;;;;;;;5110083;27;45603;-73
2022/11/21 13:44:44;;;;;;;;;6.33;4.33;;;;;;;;5126654;27;45879;-71
2022/11/21 13:47:28;;;;;;;;;7.33;3.67;;;;;;;;5119883;27;45757;-70
2022/11/21 13:49:59;;;;;;;;;5.67;4.33;;;;;;;;5096536;27;45404;-70
2022/11/21 13:52:34;;;;;;;;;7.00;4.67;;;;;;;;5107680;27;45641;-69
2022/11/21 13:55:14;;;;;;;;;5.00;4.00;;;;;;;;5096336;27;46252;-70
2022/11/21 13:57:54;;;;;;;;;3.00;3.00;;;;;;;;5114460;27;45424;-70
2022/11/21 14:00:35;;;;;;;;;3.33;2.00;;;;;;;;5096059;27;45736;-71
2022/11/21 14:03:26;;;;;;;;;6.33;4.00;;;;;;;;5120176;27;45787;-71
2022/11/21 14:05:54;;;;;;;;;5.00;3.00;;;;;;;;5089864;27;45439;-71
2022/11/21 14:08:21;;;;;;;;;4.67;3.67;;;;;;;;5127478;27;45796;-70
2022/11/21 14:10:47;;;;;;;;;4.00;3.00;;;;;;;;5121285;27;45859;-70
2022/11/21 14:13:22;;;;;;;;;3.33;2.00;;;;;;;;5124726;27;45667;-73
2022/11/21 14:15:50;;;;;;;;;5.00;3.67;;;;;;;;5125667;27;47196;-70
2022/11/21 14:18:23;;;;;;;;;6.67;3.00;;;;;;;;5116351;27;45339;-72
2022/11/21 14:20:53;;;;;;;;;5.67;3.00;;;;;;;;5127227;27;45781;-71
2022/11/21 14:23:22;;;;;;;;;1.00;1.00;;;;;;;;5122530;27;45948;-71
2022/11/21 14:25:49;;;;;;;;;7.00;4.33;;;;;;;;5113101;27;46237;-70
2022/11/21 14:28:25;;;;;;;;;4.67;3.00;;;;;;;;5136050;27;45450;-71
2022/11/21 14:31:00;;;;;;;;;2.67;2.67;;;;;;;;5118439;27;46560;-72
2022/11/21 14:33:27;;;;;;;;;5.00;4.33;;;;;;;;5109717;27;46454;-73
2022/11/21 14:35:54;;;;;;;;;3.33;3.00;;;;;;;;5136882;27;46162;-73
2022/11/21 14:38:20;;;;;;;;;6.00;3.33;;;;;;;;5116833;27;45786;-72
2022/11/21 14:40:46;;;;;;;;;4.00;4.00;;;;;;;;5111979;27;45371;-72
2022/11/21 14:43:28;;;;;;;;;9.67;6.00;;;;;;;;5113469;27;46939;-72
2022/11/21 14:45:54;;;;;;;;;3.67;3.67;;;;;;;;5112919;27;45824;-71
2022/11/21 14:48:25;;;;;;;;;6.00;3.00;;;;;;;;5133852;27;45422;-71
2022/11/21 14:50:50;;;;;;;;;5.00;2.00;;;;;;;;5143827;27;45446;-71
2022/11/21 14:53:15;;;;;;;;;2.67;1.67;;;;;;;;5124650;27;45382;-73
2022/11/21 14:55:41;;;;;;;;;5.00;4.00;;;;;;;;5128174;27;46747;-74
2022/11/21 14:58:09;;;;;;;;;4.00;4.00;;;;;;;;5119131;27;45774;-69
2022/11/21 15:00:34;;;;;;;;;3.67;3.67;;;;;;;;5125450;27;46124;-71
2022/11/21 15:02:59;;;;;;;;;3.67;3.67;;;;;;;;5113677;27;45466;-72
2022/11/21 15:05:32;;;;;;;;;6.33;3.33;;;;;;;;5125232;27;46050;-71
2022/11/21 15:07:59;;;;;;;;;3.67;3.67;;;;;;;;5135139;27;45836;-71
2022/11/21 15:10:28;;;;;;;;;5.67;4.00;;;;;;;;5131657;27;45719;-72
2022/11/21 15:13:00;;;;;;;;;2.33;2.33;;;;;;;;5136381;27;45646;-72
2022/11/21 15:15:25;;;;;;;;;6.00;4.00;;;;;;;;5116235;27;45797;-71
2022/11/21 15:18:12;;;;;;;;;3.33;3.33;;;;;;;;5113189;27;45361;-73
2022/11/21 15:20:38;;;;;;;;;4.67;4.67;;;;;;;;5126155;27;45505;-72
2022/11/21 15:23:04;;;;;;;;;9.00;5.00;;;;;;;;5114090;27;46075;-72
2022/11/21 15:25:42;;;;;;;;;5.00;5.00;;;;;;;;5116412;27;47138;-71
2022/11/21 15:28:08;;;;;;;;;5.00;4.00;;;;;;;;5119318;27;45920;-70
2022/11/21 15:30:34;;;;;;;;;6.67;4.67;;;;;;;;5135623;27;45468;-70
2022/11/21 15:33:03;;;;;;;;;5.67;5.67;;;;;;;;5136188;27;45935;-73
2022/11/21 15:35:37;;;;;;;;;5.67;4.00;;;;;;;;5121764;27;45656;-72
2022/11/21 15:38:17;;;;;;;;;3.00;3.00;;;;;;;;5124860;27;46649;-71
2022/11/21 15:40:55;;;;;;;;;6.33;3.67;;;;;;;;5119781;27;45693;-75
2022/11/21 15:43:39;;;;;;;;;3.33;3.00;;;;;;;;5132642;27;45656;-72
2022/11/21 15:46:18;;;;;;;;;5.33;5.33;;;;;;;;5129264;27;46119;-72
2022/11/21 15:48:44;;;;;;;;;3.00;3.00;;;;;;;;5114246;27;45701;-72
2022/11/21 15:51:10;;;;;;;;;5.00;5.00;;;;;;;;5109984;27;45375;-71
2022/11/21 15:53:35;;;;;;;;;5.00;5.00;;;;;;;;5105727;27;46218;-74
2022/11/21 15:56:00;;;;;;;;;4.33;4.00;;;;;;;;5107441;27;47876;-71
2022/11/21 15:58:25;;;;;;;;;3.67;3.67;;;;;;;;5104098;27;45545;-71
2022/11/21 16:00:51;;;;;;;;;7.00;4.00;;;;;;;;5114228;27;45538;-72
2022/11/21 16:03:16;;;;;;;;;7.00;4.67;;;;;;;;5115869;27;45408;-72
2022/11/21 16:05:41;;;;;;;;;4.00;4.00;;;;;;;;5112895;27;45635;-74
2022/11/21 16:08:06;;;;;;;;;3.67;3.67;;;;;;;;5113887;27;45358;-72
2022/11/21 16:10:32;;;;;;;;;4.33;4.33;;;;;;;;5126258;27;45586;-72
2022/11/21 16:12:57;;;;;;;;;3.67;3.33;;;;;;;;5112877;27;45623;-72
2022/11/21 16:15:22;;;;;;;;;5.00;4.00;;;;;;;;5109049;27;46882;-72
2022/11/21 16:17:48;;;;;;;;;6.00;6.00;;;;;;;;5107512;27;45806;-73
2022/11/21 16:20:13;;;;;;;;;6.00;5.00;;;;;;;;5126572;27;45802;-74
2022/11/21 16:22:38;;;;;;;;;3.33;3.00;;;;;;;;5114020;27;45811;-72
2022/11/21 16:25:04;;;;;;;;;3.00;3.00;;;;;;;;5111034;27;46067;-73
2022/11/21 16:27:30;;;;;;;;;6.33;4.33;;;;;;;;5129947;27;45782;-73
2022/11/21 16:29:56;;;;;;;;;3.00;3.00;;;;;;;;5122238;27;45784;-73
2022/11/21 16:32:23;;;;;;;;;6.00;5.00;;;;;;;;5106415;27;45397;-74
2022/11/21 16:34:50;;;;;;;;;7.00;7.00;;;;;;;;5118459;27;45672;-73
2022/11/21 16:37:15;;;;;;;;;12.00;9.00;;;;;;;;5112252;27;45404;-74
2022/11/21 16:39:40;;;;;;;;;15.33;11.00;;;;;;;;5125391;27;46059;-72
2022/11/21 16:42:08;;;;;;;;;23.33;19.67;;;;;;;;5126955;27;45482;-74
2022/11/21 16:44:34;;;;;;;;;27.67;24.67;;;;;;;;5116477;27;46079;-73
2022/11/21 16:46:59;;;;;;;;;51.50;40.75;;;;;;;;5121077;27;45860;-74
2022/11/21 16:49:24;;;;;;;;;8.67;8.67;;;;;;;;5113993;27;45706;-72
2022/11/21 16:51:49;;;;;;;;;7.00;7.00;;;;;;;;5112193;27;45541;-75
2022/11/21 16:54:15;;;;;;;;;17.00;13.33;;;;;;;;5108043;27;45613;-73
2022/11/21 16:56:40;;;;;;;;;34.33;30.00;;;;;;;;5121528;27;45658;-74
2022/11/21 16:59:05;;;;;;;;;18.33;17.67;;;;;;;;5126258;27;45553;-73
2022/11/21 17:01:30;;;;;;;;;19.67;17.67;;;;;;;;5129337;27;45388;-71
2022/11/21 17:03:56;;;;;;;;;15.33;12.00;;;;;;;;5116079;27;45349;-72
2022/11/21 17:06:23;;;;;;;;;12.67;10.00;;;;;;;;5117911;27;45361;-71
2022/11/21 17:08:48;;;;;;;;;6.00;6.00;;;;;;;;5121201;27;45738;-72
2022/11/21 17:11:27;;;;;;;;;4.67;4.67;;;;;;;;5177356;22;45835;-86
2022/11/21 17:17:03;;;;;;;;;6.00;4.67;;;;;;;;5112876;27;45938;-81
2022/11/21 17:38:35;;;;;;;;;8.67;5.00;;;;;;;;4854484;28;46453;-84
2022/11/21 17:41:01;;;;;;;;;6.00;5.00;;;;;;;;5045571;22;46634;-70
2022/11/21 17:43:27;;;;;;;;;6.67;5.33;;;;;;;;5141769;27;45773;-72
2022/11/21 17:45:56;;;;;;;;;6.67;6.67;;;;;;;;5140569;27;45294;-68
2022/11/21 17:48:21;;;;;;;;;8.00;5.00;;;;;;;;5160055;27;45699;-68
2022/11/21 17:50:46;;;;;;;;;5.67;4.67;;;;;;;;5146203;27;45524;-68
2022/11/21 17:53:12;;;;;;;;;9.00;5.00;;;;;;;;5140682;27;45447;-67
2022/11/21 17:55:37;;;;;;;;;8.67;7.00;;;;;;;;5149405;27;45782;-67
2022/11/21 17:58:02;;;;;;;;;8.33;4.33;;;;;;;;5148555;27;46411;-66
2022/11/21 18:00:28;;;;;;;;;7.67;7.33;;;;;;;;5136181;27;45847;-67
2022/11/21 18:02:55;;;;;;;;;5.67;4.67;;;;;;;;5151795;27;45586;-68
2022/11/21 18:05:20;;;;;;;;;12.00;9.00;;;;;;;;5144232;27;45357;-66
2022/11/21 18:07:45;;;;;;;;;9.67;6.00;;;;;;;;5114549;27;48202;-68
2022/11/21 18:10:10;;;;;;;;;4.33;3.33;;;;;;;;5133739;27;46565;-69
2022/11/21 18:12:36;;;;;;;;;8.00;6.00;;;;;;;;5144887;27;46001;-66
2022/11/21 18:15:01;;;;;;;;;4.00;3.33;;;;;;;;5121374;27;45708;-69
2022/11/21 18:17:26;;;;;;;;;8.33;5.00;;;;;;;;5138480;27;45957;-65
2022/11/21 18:19:51;;;;;;;;;6.00;4.67;;;;;;;;5131817;27;45845;-67
2022/11/21 18:22:17;;;;;;;;;9.67;5.67;;;;;;;;5117200;27;45319;-67
2022/11/21 18:24:42;;;;;;;;;10.67;6.67;;;;;;;;5137818;27;45687;-69
2022/11/21 18:27:08;;;;;;;;;10.00;5.33;;;;;;;;5141382;27;45987;-67
2022/11/21 18:29:33;;;;;;;;;6.67;5.00;;;;;;;;5157592;27;45673;-69
2022/11/21 18:31:58;;;;;;;;;5.33;4.67;;;;;;;;5145041;27;45479;-69
2022/11/21 18:34:23;;;;;;;;;6.33;5.33;;;;;;;;5123810;27;45529;-67
2022/11/21 18:36:49;;;;;;;;;9.67;6.00;;;;;;;;5112648;27;47422;-67
2022/11/21 18:39:14;;;;;;;;;6.33;6.33;;;;;;;;5143463;27;45858;-66
2022/11/21 18:41:39;;;;;;;;;9.33;8.33;;;;;;;;5139452;27;46937;-67
2022/11/21 18:44:05;;;;;;;;;9.00;7.33;;;;;;;;5143697;27;45780;-67
2022/11/21 18:46:31;;;;;;;;;17.33;12.00;;;;;;;;5147084;27;45584;-67
2022/11/21 18:48:57;;;;;;;;;7.33;4.33;;;;;;;;5139596;27;45770;-68
2022/11/21 18:51:26;;;;;;;;;9.00;6.00;;;;;;;;5147583;27;45689;-67
2022/11/21 18:53:53;;;;;;;;;11.33;6.00;;;;;;;;5125837;27;47098;-67
2022/11/21 18:56:18;;;;;;;;;8.00;5.33;;;;;;;;5143651;27;45465;-72
2022/11/21 18:58:44;;;;;;;;;11.00;7.67;;;;;;;;5139697;27;45341;-68
2022/11/21 19:01:11;;;;;;;;;9.00;6.33;;;;;;;;5139026;27;45581;-67
2022/11/21 19:03:36;;;;;;;;;5.67;5.33;;;;;;;;5139080;27;45434;-67
2022/11/21 19:06:06;;;;;;;;;10.67;5.00;;;;;;;;5132816;27;47038;-67
2022/11/21 19:08:31;;;;;;;;;14.00;9.33;;;;;;;;5146910;27;45483;-67
2022/11/21 19:11:00;;;;;;;;;6.33;3.67;;;;;;;;5122470;27;45406;-66
2022/11/21 19:13:27;;;;;;;;;11.00;7.33;;;;;;;;5142031;27;45970;-67
2022/11/21 19:15:52;;;;;;;;;11.33;6.33;;;;;;;;5132399;27;46053;-66